Time;durP1;ratioP1;P1;durP2;ratioP2;P2;SDS_P1;SDS_P2;PMS_P1;PMS_P2;Temp;Humidity;BMP_temperature;BMP_pressure;BME280_temperature;BME280_humidity;BME280_pressure;Samples;Min_cycle;Max_cycle;Signal;HPM_P1;HPM_P2
2022/03/20 00:00:22;;;;;;;;;;;;;;;0.06;43.40;101440.94;5053072;28;19931;-65
2022/03/20 00:02:48;;;;;;;;;;;;;;;0.05;43.74;101445.31;5067908;28;19932;-66
2022/03/20 00:05:14;;;;;;;;;;;;;;;0.01;43.96;101443.09;5056231;28;19924;-64
2022/03/20 00:07:41;;;;;;;;;;;;;;;-0.02;44.05;101447.59;5074266;28;19935;-61
2022/03/20 00:10:07;;;;;;;;;;;;;;;-0.02;44.10;101444.16;5072118;28;20321;-63
2022/03/20 00:12:37;;;;;;;;;;;;;;;-0.06;44.38;101443.56;5072684;28;20311;-62
2022/03/20 00:15:03;;;;;;;;;;;;;;;-0.03;44.75;101442.47;5072874;28;19974;-62
2022/03/20 00:17:29;;;;;;;;;;;;;;;-0.07;44.66;101438.44;5060704;28;19963;-62
2022/03/20 00:19:55;;;;;;;;;;;;;;;-0.09;44.54;101442.94;5052669;28;20333;-60
2022/03/20 00:22:20;;;;;;;;;;;;;;;-0.16;44.90;101439.16;5053955;28;20294;-64
2022/03/20 00:24:47;;;;;;;;;;;;;;;-0.19;45.33;101436.78;5053118;28;20321;-63
2022/03/20 00:27:12;;;;;;;;;;;;;;;-0.20;45.68;101432.53;5073910;28;20015;-63
2022/03/20 00:29:39;;;;;;;;;;;;;;;-0.29;45.55;101434.88;5066298;28;19990;-64
2022/03/20 00:32:08;;;;;;;;;;;;;;;-0.27;45.55;101429.53;5064350;28;19970;-64
2022/03/20 00:34:34;;;;;;;;;;;;;;;-0.30;45.29;101429.78;5074194;28;20074;-63
2022/03/20 00:37:00;;;;;;;;;;;;;;;-0.33;45.88;101430.84;5072843;28;19924;-63
2022/03/20 00:39:26;;;;;;;;;;;;;;;-0.33;45.96;101423.03;5073017;28;19928;-64
2022/03/20 00:41:51;;;;;;;;;;;;;;;-0.39;46.18;101418.28;5073587;28;20028;-63
2022/03/20 00:44:17;;;;;;;;;;;;;;;-0.41;46.42;101417.59;5074050;28;19976;-63
2022/03/20 00:46:43;;;;;;;;;;;;;;;-0.39;46.37;101414.84;5073521;28;19946;-61
2022/03/20 00:49:09;;;;;;;;;;;;;;;-0.42;46.67;101413.28;5072830;28;19958;-63
2022/03/20 00:51:34;;;;;;;;;;;;;;;-0.45;47.35;101408.31;5072323;28;19942;-62
2022/03/20 00:54:00;;;;;;;;;;;;;;;-0.46;47.13;101407.50;5073386;28;19928;-62
2022/03/20 00:56:26;;;;;;;;;;;;;;;-0.49;47.77;101404.31;5071975;28;19967;-64
2022/03/20 00:58:51;;;;;;;;;;;;;;;-0.49;47.92;101404.31;5051819;28;19929;-63
2022/03/20 01:01:17;;;;;;;;;;;;;;;-0.48;48.00;101406.78;5053391;28;19946;-62
2022/03/20 01:03:42;;;;;;;;;;;;;;;-0.44;47.76;101411.75;5053352;28;19929;-67
2022/03/20 01:06:08;;;;;;;;;;;;;;;-0.44;47.79;101403.94;5053387;28;19943;-65
2022/03/20 01:08:34;;;;;;;;;;;;;;;-0.53;48.24;101408.91;5066174;28;20065;-66
2022/03/20 01:11:01;;;;;;;;;;;;;;;-0.50;48.71;101411.28;5071357;28;19924;-64
2022/03/20 01:13:26;;;;;;;;;;;;;;;-0.49;48.78;101412.94;5071763;28;20096;-64
2022/03/20 01:15:52;;;;;;;;;;;;;;;-0.50;48.45;101407.84;5071396;28;20082;-66
2022/03/20 01:18:17;;;;;;;;;;;;;;;-0.50;49.00;101413.91;5073189;28;19986;-65
2022/03/20 01:20:42;;;;;;;;;;;;;;;-0.52;49.12;101420.16;5071471;28;19925;-61
2022/03/20 01:23:08;;;;;;;;;;;;;;;-0.51;49.46;101411.41;5070870;28;20010;-62
2022/03/20 01:25:34;;;;;;;;;;;;;;;-0.50;49.71;101413.03;5071417;28;19924;-62
2022/03/20 01:27:59;;;;;;;;;;;;;;;-0.52;50.05;101401.94;5072565;28;19935;-62
2022/03/20 01:30:25;;;;;;;;;;;;;;;-0.52;50.13;101414.94;5053935;28;19925;-61
2022/03/20 01:32:50;;;;;;;;;;;;;;;-0.53;50.20;101402.84;5051497;28;20027;-62
2022/03/20 01:35:16;;;;;;;;;;;;;;;-0.54;50.41;101396.81;5052868;28;19925;-61
2022/03/20 01:37:42;;;;;;;;;;;;;;;-0.54;50.23;101396.81;5052154;28;19975;-60
2022/03/20 01:40:07;;;;;;;;;;;;;;;-0.51;50.20;101398.38;5052709;28;19931;-62
2022/03/20 01:42:33;;;;;;;;;;;;;;;-0.54;50.68;101394.22;5068125;28;20279;-64
2022/03/20 01:44:58;;;;;;;;;;;;;;;-0.54;50.92;101385.56;5052678;28;19925;-65
2022/03/20 01:47:24;;;;;;;;;;;;;;;-0.56;51.02;101396.13;5034356;28;19974;-64
2022/03/20 01:49:49;;;;;;;;;;;;;;;-0.60;51.42;101391.25;5050902;28;19924;-65
2022/03/20 01:52:23;;;;;;;;;;;;;;;-0.62;51.52;101386.13;5052209;28;20426;-65
2022/03/20 01:54:49;;;;;;;;;;;;;;;-0.62;51.70;101382.72;5051039;28;19929;-60
2022/03/20 01:57:20;;;;;;;;;;;;;;;-0.63;51.73;101381.06;5045908;28;19947;-62
2022/03/20 01:59:46;;;;;;;;;;;;;;;-0.63;51.73;101378.47;5067326;28;19967;-61
2022/03/20 02:02:12;;;;;;;;;;;;;;;-0.65;51.86;101377.72;5052441;28;19970;-62
2022/03/20 02:04:37;;;;;;;;;;;;;;;-0.64;52.16;101369.00;5052531;28;19929;-62
2022/03/20 02:07:03;;;;;;;;;;;;;;;-0.62;52.10;101372.28;5050460;28;20153;-61
2022/03/20 02:09:29;;;;;;;;;;;;;;;-0.64;52.54;101362.00;5052407;28;19929;-62
2022/03/20 02:11:56;;;;;;;;;;;;;;;-0.63;52.68;101365.44;5073575;28;19931;-62
2022/03/20 02:14:21;;;;;;;;;;;;;;;-0.66;52.59;101357.84;5052411;28;19929;-61
2022/03/20 02:16:47;;;;;;;;;;;;;;;-0.67;52.88;101356.22;5062884;28;19960;-61
2022/03/20 02:19:13;;;;;;;;;;;;;;;-0.72;53.57;101356.53;5070825;28;19974;-62
2022/03/20 02:21:39;;;;;;;;;;;;;;;-0.72;54.16;101353.94;5070583;28;19932;-62
2022/03/20 02:24:24;;;;;;;;;;;;;;;-0.66;54.02;101350.03;5070896;28;19936;-62
2022/03/20 02:26:49;;;;;;;;;;;;;;;-0.62;54.40;101354.06;5062072;28;19924;-62
2022/03/20 02:29:14;;;;;;;;;;;;;;;-0.63;54.63;101344.59;5052244;28;20282;-61
2022/03/20 02:31:40;;;;;;;;;;;;;;;-0.63;54.28;101350.63;5050294;28;20461;-62
2022/03/20 02:34:07;;;;;;;;;;;;;;;-0.69;54.63;101351.09;5051968;28;19935;-63
2022/03/20 02:36:36;;;;;;;;;;;;;;;-0.69;54.27;101348.50;5051585;28;20027;-63
2022/03/20 02:39:03;;;;;;;;;;;;;;;-0.69;54.85;101353.69;5066309;28;19955;-62
2022/03/20 02:41:28;;;;;;;;;;;;;;;-0.67;54.87;101353.59;5051527;28;20007;-63
2022/03/20 02:43:54;;;;;;;;;;;;;;;-0.72;55.40;101346.94;5067278;28;20464;-63
2022/03/20 02:46:20;;;;;;;;;;;;;;;-0.71;55.95;101347.78;5064444;28;19927;-61
2022/03/20 02:48:45;;;;;;;;;;;;;;;-0.70;56.66;101344.25;5070314;28;19929;-63
2022/03/20 02:51:11;;;;;;;;;;;;;;;-0.68;56.86;101347.53;5069999;28;19971;-62
2022/03/20 02:53:37;;;;;;;;;;;;;;;-0.64;56.71;101348.16;5071391;28;19929;-62
2022/03/20 02:56:03;;;;;;;;;;;;;;;-0.67;56.96;101343.19;5071607;28;19978;-62
2022/03/20 02:58:29;;;;;;;;;;;;;;;-0.66;56.38;101344.84;5071586;28;19979;-63
2022/03/20 03:00:55;;;;;;;;;;;;;;;-0.70;57.08;101344.25;5071482;28;19964;-64
2022/03/20 03:03:22;;;;;;;;;;;;;;;-0.69;57.30;101338.91;5070226;28;19929;-63
2022/03/20 03:05:48;;;;;;;;;;;;;;;-0.69;57.67;101338.06;5070718;28;19935;-63
2022/03/20 03:10:59;;;;;;;;;;;;;;;-0.66;58.83;101337.84;5053357;28;19969;-63
2022/03/20 03:13:35;;;;;;;;;;;;;;;-0.64;58.22;101330.75;5069782;28;19929;-63
2022/03/20 03:16:03;;;;;;;;;;;;;;;-0.62;59.25;101334.03;5070377;28;19932;-62
2022/03/20 03:18:28;;;;;;;;;;;;;;;-0.57;58.75;101336.31;5071125;28;19994;-63
2022/03/20 03:20:54;;;;;;;;;;;;;;;-0.55;58.62;101327.44;5071144;28;20402;-64
2022/03/20 03:23:20;;;;;;;;;;;;;;;-0.54;58.22;101329.09;5050003;28;19983;-62
2022/03/20 03:25:45;;;;;;;;;;;;;;;-0.55;58.59;101337.03;5049830;28;20258;-64
2022/03/20 03:28:11;;;;;;;;;;;;;;;-0.57;58.37;101339.75;5051440;28;19929;-64
2022/03/20 03:30:37;;;;;;;;;;;;;;;-0.58;59.71;101332.06;5051321;28;19931;-65
2022/03/20 03:33:03;;;;;;;;;;;;;;;-0.57;58.87;101334.53;5051271;28;20455;-63
2022/03/20 03:35:47;;;;;;;;;;;;;;;-0.56;59.65;101338.81;5051177;28;20031;-67
2022/03/20 03:38:16;;;;;;;;;;;;;;;-0.51;59.17;101331.47;5050587;28;20398;-68
2022/03/20 03:40:43;;;;;;;;;;;;;;;-0.43;58.78;101330.06;5033127;28;19924;-68
2022/03/20 03:43:09;;;;;;;;;;;;;;;-0.44;59.21;101326.63;5033015;28;19940;-69
2022/03/20 03:45:35;;;;;;;;;;;;;;;-0.35;58.73;101328.50;5050103;28;19925;-68
2022/03/20 03:48:01;;;;;;;;;;;;;;;-0.30;59.04;101328.13;5053431;28;20070;-63
2022/03/20 03:50:27;;;;;;;;;;;;;;;-0.15;58.50;101323.50;5054566;28;19925;-62
2022/03/20 03:52:53;;;;;;;;;;;;;;;-0.10;57.95;101321.38;5054294;28;19928;-65
2022/03/20 03:55:18;;;;;;;;;;;;;;;0.00;57.47;101317.13;5054758;28;20382;-65
2022/03/20 03:57:44;;;;;;;;;;;;;;;0.12;57.15;101321.34;5054486;28;19929;-64
2022/03/20 04:00:10;;;;;;;;;;;;;;;0.15;56.90;101315.06;5054311;28;20310;-61
2022/03/20 04:02:45;;;;;;;;;;;;;;;0.29;56.50;101314.75;5052771;28;19929;-62
2022/03/20 04:05:10;;;;;;;;;;;;;;;0.45;56.32;101298.72;5054324;28;19925;-61
2022/03/20 04:07:36;;;;;;;;;;;;;;;0.59;55.66;101303.66;5071585;28;20002;-64
2022/03/20 04:10:02;;;;;;;;;;;;;;;0.74;55.21;101296.34;5073825;28;20027;-64
2022/03/20 04:12:29;;;;;;;;;;;;;;;0.82;55.08;101306.94;5067575;28;20465;-64
2022/03/20 04:14:57;;;;;;;;;;;;;;;0.81;54.44;101301.88;5077709;28;20010;-64
2022/03/20 04:17:23;;;;;;;;;;;;;;;0.89;54.80;101296.84;5095050;28;19924;-65
2022/03/20 04:19:48;;;;;;;;;;;;;;;0.81;55.09;101301.88;5075341;28;19929;-66
2022/03/20 04:22:15;;;;;;;;;;;;;;;0.87;55.07;101299.56;5072724;28;19985;-66
2022/03/20 04:24:40;;;;;;;;;;;;;;;1.04;54.36;101292.13;5074273;28;19925;-65
2022/03/20 04:27:07;;;;;;;;;;;;;;;1.13;54.23;101288.72;5074363;28;20408;-66
2022/03/20 04:29:33;;;;;;;;;;;;;;;1.26;53.93;101288.50;5074349;28;20348;-63
2022/03/20 04:31:58;;;;;;;;;;;;;;;1.29;53.70;101285.66;5072847;28;20400;-64
2022/03/20 04:34:26;;;;;;;;;;;;;;;1.31;53.04;101278.50;5072705;28;20127;-63
2022/03/20 04:36:52;;;;;;;;;;;;;;;1.40;53.33;101284.75;5073699;28;20519;-64
2022/03/20 04:39:18;;;;;;;;;;;;;;;1.44;53.16;101284.34;5072378;28;19932;-61
2022/03/20 04:41:44;;;;;;;;;;;;;;;1.48;52.78;101277.06;5073309;28;20405;-63
2022/03/20 04:44:12;;;;;;;;;;;;;;;1.48;52.86;101285.75;5074125;28;20440;-63
2022/03/20 04:46:38;;;;;;;;;;;;;;;1.52;52.87;101283.69;5073363;28;20317;-63
2022/03/20 05:00:00;;;;;;;;;;;;;;;1.42;52.95;101281.03;5055288;28;19925;-69
2022/03/20 05:02:25;;;;;;;;;;;;;;;1.51;53.15;101289.88;5055285;28;20114;-69
2022/03/20 05:04:52;;;;;;;;;;;;;;;1.54;52.81;101285.22;5073171;28;19924;-64
2022/03/20 05:07:18;;;;;;;;;;;;;;;1.53;52.41;101286.19;5067858;28;19927;-65
2022/03/20 05:15:13;;;;;;;;;;;;;;;1.87;52.49;101270.16;5053250;28;20420;-64
2022/03/20 05:17:38;;;;;;;;;;;;;;;1.89;52.03;101276.09;5053038;28;19967;-63
2022/03/20 05:20:04;;;;;;;;;;;;;;;1.99;51.95;101271.69;5051701;28;19935;-64
2022/03/20 05:22:31;;;;;;;;;;;;;;;2.06;52.23;101269.38;5051436;28;19924;-64
2022/03/20 05:24:56;;;;;;;;;;;;;;;2.09;51.46;101269.13;5052990;28;19925;-64
2022/03/20 05:27:22;;;;;;;;;;;;;;;2.18;51.52;101264.84;5061353;28;20451;-63
2022/03/20 05:29:47;;;;;;;;;;;;;;;2.22;51.66;101261.00;5072852;28;19924;-63
2022/03/20 05:32:13;;;;;;;;;;;;;;;2.34;51.42;101264.31;5072350;28;19924;-62
2022/03/20 05:34:39;;;;;;;;;;;;;;;2.41;51.00;101253.16;5064161;28;20397;-62
2022/03/20 05:37:07;;;;;;;;;;;;;;;2.42;51.73;101254.78;5080368;28;19966;-63
2022/03/20 05:39:33;;;;;;;;;;;;;;;2.51;51.49;101255.75;5090339;28;19935;-62
2022/03/20 05:41:58;;;;;;;;;;;;;;;2.61;51.20;101253.13;5066508;28;19928;-61
2022/03/20 05:44:24;;;;;;;;;;;;;;;2.61;50.96;101251.31;5067935;28;19953;-61
2022/03/20 05:46:50;;;;;;;;;;;;;;;2.62;51.70;101245.13;5078985;28;20420;-60
2022/03/20 05:49:16;;;;;;;;;;;;;;;2.68;51.59;101252.44;5072809;28;19928;-60
2022/03/20 05:51:42;;;;;;;;;;;;;;;2.55;51.59;101235.34;5062188;28;20482;-60
2022/03/20 05:54:08;;;;;;;;;;;;;;;2.60;51.60;101241.81;5058928;28;20609;-60
2022/03/20 05:59:18;;;;;;;;;;;;;;;2.70;51.49;101231.31;5056019;28;19933;-65
2022/03/20 06:01:44;;;;;;;;;;;;;;;2.80;51.38;101232.16;5062035;28;19925;-66
2022/03/20 06:04:10;;;;;;;;;;;;;;;2.84;51.05;101230.88;5047101;28;19935;-61
2022/03/20 06:06:36;;;;;;;;;;;;;;;2.94;51.03;101223.00;5043804;28;20397;-63
2022/03/20 06:09:03;;;;;;;;;;;;;;;3.05;51.00;101217.59;5013814;28;20488;-63
2022/03/20 06:11:29;;;;;;;;;;;;;;;3.14;50.85;101214.09;5050017;28;20023;-62
2022/03/20 06:13:55;;;;;;;;;;;;;;;3.18;50.91;101222.53;5060645;28;19973;-64
2022/03/20 06:16:24;;;;;;;;;;;;;;;3.27;50.30;101216.41;5070877;28;19942;-60
2022/03/20 06:19:01;;;;;;;;;;;;;;;3.36;50.18;101222.59;5043299;28;19954;-64
2022/03/20 06:21:27;;;;;;;;;;;;;;;3.45;49.88;101220.88;5071303;28;19929;-62
2022/03/20 06:23:54;;;;;;;;;;;;;;;3.54;49.70;101220.81;5070094;28;20286;-61
2022/03/20 06:26:20;;;;;;;;;;;;;;;3.46;49.60;101214.66;5067932;28;19931;-62
2022/03/20 06:28:46;;;;;;;;;;;;;;;3.58;49.45;101211.69;5065925;28;19949;-63
2022/03/20 06:31:13;;;;;;;;;;;;;;;3.63;49.48;101200.75;5058812;28;19948;-62
2022/03/20 06:33:43;;;;;;;;;;;;;;;3.66;49.81;101207.50;5050028;28;20358;-62
2022/03/20 06:36:09;;;;;;;;;;;;;;;3.60;50.12;101193.19;5060787;28;19924;-60
2022/03/20 06:38:35;;;;;;;;;;;;;;;3.68;50.26;101197.69;5059197;28;19955;-61
2022/03/20 06:41:01;;;;;;;;;;;;;;;3.74;50.38;101194.50;5087377;28;20392;-61
2022/03/20 06:43:29;;;;;;;;;;;;;;;3.80;50.32;101189.47;5091458;28;19928;-60
2022/03/20 06:45:56;;;;;;;;;;;;;;;3.84;50.69;101185.56;5069692;28;20038;-61
2022/03/20 06:48:22;;;;;;;;;;;;;;;3.97;50.65;101189.59;5071341;28;19928;-63
2022/03/20 06:50:48;;;;;;;;;;;;;;;3.98;51.27;101184.22;5070992;28;20346;-62
2022/03/20 06:53:13;;;;;;;;;;;;;;;4.04;50.98;101194.13;5071250;28;19928;-62
2022/03/20 06:55:39;;;;;;;;;;;;;;;3.99;51.39;101185.03;5060979;28;19924;-62
2022/03/20 06:58:06;;;;;;;;;;;;;;;3.99;52.00;101192.91;5052440;28;20309;-61
2022/03/20 07:00:33;;;;;;;;;;;;;;;4.13;51.82;101189.75;5036789;28;19924;-62
2022/03/20 07:03:00;;;;;;;;;;;;;;;4.07;51.22;101182.50;5076063;28;20031;-60
2022/03/20 07:05:26;;;;;;;;;;;;;;;4.06;51.64;101179.06;5084522;28;20377;-60
2022/03/20 07:07:51;;;;;;;;;;;;;;;4.17;51.44;101175.34;5089015;28;19928;-60
2022/03/20 07:10:20;;;;;;;;;;;;;;;4.25;51.39;101169.34;5073373;28;19928;-61
2022/03/20 07:12:45;;;;;;;;;;;;;;;4.33;50.93;101174.69;5070887;28;19928;-61
2022/03/20 07:15:11;;;;;;;;;;;;;;;4.40;51.43;101174.88;5049900;28;20389;-60
2022/03/20 07:17:37;;;;;;;;;;;;;;;4.39;51.56;101175.88;5051229;28;20286;-61
2022/03/20 07:20:03;;;;;;;;;;;;;;;4.41;51.02;101177.38;5049742;28;20401;-61
2022/03/20 07:22:29;;;;;;;;;;;;;;;4.55;50.39;101165.47;5071321;28;19929;-60
2022/03/20 07:29:29;;;;;;;;;;;;;;;4.58;51.47;101164.34;5071656;28;19924;-62
2022/03/20 07:30:25;;;;;;;;;;;;;;;4.83;50.07;101160.06;5073643;28;19940;-63
2022/03/20 07:32:50;;;;;;;;;;;;;;;4.93;49.74;101158.94;5073881;28;19929;-61
2022/03/20 07:35:16;;;;;;;;;;;;;;;4.91;50.61;101154.81;5074933;28;20409;-62
2022/03/20 07:37:42;;;;;;;;;;;;;;;4.94;49.91;101160.59;5074903;28;19981;-66
2022/03/20 07:40:09;;;;;;;;;;;;;;;5.01;50.21;101164.25;5074089;28;20023;-64
2022/03/20 07:42:38;;;;;;;;;;;;;;;5.09;50.49;101158.22;5074117;28;19978;-59
2022/03/20 07:45:04;;;;;;;;;;;;;;;5.19;50.09;101150.19;5061676;28;19925;-65
2022/03/20 07:47:33;;;;;;;;;;;;;;;5.32;48.83;101147.09;5054016;28;19921;-60
2022/03/20 07:50:07;;;;;;;;;;;;;;;5.43;48.99;101139.72;5036969;28;19926;-62
2022/03/20 07:52:35;;;;;;;;;;;;;;;5.49;49.48;101132.19;5054926;28;20119;-62
2022/03/20 07:55:01;;;;;;;;;;;;;;;5.49;48.80;101129.56;5054327;28;19925;-69
2022/03/20 07:57:32;;;;;;;;;;;;;;;5.60;49.26;101134.53;5053684;28;20214;-62
2022/03/20 07:59:58;;;;;;;;;;;;;;;5.69;48.78;101134.34;5053103;28;20433;-62
2022/03/20 08:02:24;;;;;;;;;;;;;;;5.82;47.99;101135.69;5054365;28;20019;-61
2022/03/20 08:04:53;;;;;;;;;;;;;;;5.80;48.49;101130.59;5054624;28;20413;-61
2022/03/20 08:07:21;;;;;;;;;;;;;;;5.86;47.77;101126.50;5054228;28;20455;-61
2022/03/20 08:09:46;;;;;;;;;;;;;;;5.97;47.73;101114.81;5054331;28;20304;-61
2022/03/20 08:12:12;;;;;;;;;;;;;;;6.02;46.54;101110.72;5053060;28;20024;-60
2022/03/20 08:14:39;;;;;;;;;;;;;;;6.10;46.39;101109.91;5054552;28;19928;-60
2022/03/20 08:17:08;;;;;;;;;;;;;;;6.20;46.60;101105.28;5054205;28;19921;-61
2022/03/20 08:19:34;;;;;;;;;;;;;;;6.12;45.87;101107.94;5052628;28;19983;-60
2022/03/20 08:21:59;;;;;;;;;;;;;;;6.19;45.73;101105.44;5054401;28;19925;-63
2022/03/20 08:24:25;;;;;;;;;;;;;;;6.25;45.12;101104.78;5054536;28;19929;-62
2022/03/20 08:26:50;;;;;;;;;;;;;;;6.22;45.34;101099.84;5054232;28;19925;-61
2022/03/20 08:29:16;;;;;;;;;;;;;;;6.35;44.84;101092.25;5054523;28;20316;-61
2022/03/20 08:31:45;;;;;;;;;;;;;;;6.36;43.47;101086.00;5053628;28;19925;-61
2022/03/20 08:34:12;;;;;;;;;;;;;;;6.42;43.76;101085.31;5052342;28;20360;-61
2022/03/20 08:36:38;;;;;;;;;;;;;;;6.49;43.23;101085.47;5054181;28;20345;-61
2022/03/20 08:39:04;;;;;;;;;;;;;;;6.49;42.37;101086.28;5052132;28;19932;-61
2022/03/20 08:41:31;;;;;;;;;;;;;;;6.53;41.02;101079.72;5053836;28;19931;-61
2022/03/20 08:43:57;;;;;;;;;;;;;;;6.56;40.29;101076.72;5054105;28;20023;-61
2022/03/20 08:46:23;;;;;;;;;;;;;;;6.64;40.02;101080.31;5053904;28;19963;-62
2022/03/20 08:48:48;;;;;;;;;;;;;;;6.71;39.58;101082.13;5053653;28;19932;-61
2022/03/20 08:51:14;;;;;;;;;;;;;;;6.76;39.62;101074.50;5053586;28;19932;-61
2022/03/20 08:53:40;;;;;;;;;;;;;;;6.73;39.79;101069.56;5053475;28;19935;-63
2022/03/20 08:56:06;;;;;;;;;;;;;;;6.79;39.08;101058.38;5053691;28;20439;-59
2022/03/20 08:58:31;;;;;;;;;;;;;;;6.90;38.37;101056.34;5053548;28;20042;-61
2022/03/20 09:01:00;;;;;;;;;;;;;;;6.94;36.57;101060.25;5053607;28;19979;-61
2022/03/20 09:03:25;;;;;;;;;;;;;;;6.99;36.12;101065.84;5051908;28;19935;-60
2022/03/20 09:05:51;;;;;;;;;;;;;;;6.96;35.31;101058.28;5053433;28;20019;-60
2022/03/20 09:08:16;;;;;;;;;;;;;;;6.99;32.29;101050.84;5053439;28;19928;-62
2022/03/20 09:10:42;;;;;;;;;;;;;;;7.01;32.15;101058.59;5051881;28;19931;-60
2022/03/20 09:13:08;;;;;;;;;;;;;;;7.09;32.29;101045.38;5052121;28;19928;-61
2022/03/20 09:15:34;;;;;;;;;;;;;;;7.15;30.81;101038.56;5052988;28;19932;-62
2022/03/20 09:20:43;;;;;;;;;;;;;;;7.30;31.14;101044.72;5052897;28;19978;-62
2022/03/20 09:23:09;;;;;;;;;;;;;;;7.33;30.02;101036.47;5035182;28;19932;-61
2022/03/20 09:25:35;;;;;;;;;;;;;;;7.33;29.88;101033.00;5052759;28;19929;-61
2022/03/20 09:28:04;;;;;;;;;;;;;;;7.33;29.55;101035.66;5052942;28;19935;-61
2022/03/20 09:30:30;;;;;;;;;;;;;;;7.34;29.82;101027.56;5051382;28;20348;-60
2022/03/20 09:32:56;;;;;;;;;;;;;;;7.41;30.49;101012.66;5052874;28;19928;-61
2022/03/20 09:35:21;;;;;;;;;;;;;;;7.46;29.83;101017.41;5052797;28;19932;-61
2022/03/20 09:37:47;;;;;;;;;;;;;;;7.49;30.50;101012.59;5052347;28;20112;-62
2022/03/20 09:40:13;;;;;;;;;;;;;;;7.54;30.42;100998.88;5051149;28;20035;-60
2022/03/20 09:42:39;;;;;;;;;;;;;;;7.54;29.92;100988.31;5052445;28;19997;-61
2022/03/20 09:45:05;;;;;;;;;;;;;;;7.52;29.63;101000.84;5067431;28;19925;-60
2022/03/20 09:47:34;;;;;;;;;;;;;;;7.54;30.05;100995.41;5052560;28;19924;-61
2022/03/20 09:50:00;;;;;;;;;;;;;;;7.57;29.35;100992.41;5052321;28;19986;-61
2022/03/20 09:52:25;;;;;;;;;;;;;;;7.60;29.89;100989.44;5052317;28;19964;-61
2022/03/20 09:54:51;;;;;;;;;;;;;;;7.61;29.92;100989.22;5051228;28;20012;-61
2022/03/20 09:57:17;;;;;;;;;;;;;;;7.62;29.51;100976.88;5050886;28;20018;-62
2022/03/20 09:59:44;;;;;;;;;;;;;;;7.63;29.14;100978.50;5050892;28;19932;-61
2022/03/20 10:02:10;;;;;;;;;;;;;;;7.69;29.36;100968.03;5052135;28;19925;-62
2022/03/20 10:04:59;;;;;;;;;;;;;;;7.77;29.58;100977.72;5050956;28;19928;-62
2022/03/20 10:07:31;;;;;;;;;;;;;;;7.81;30.55;100971.06;5051741;28;19925;-61
2022/03/20 10:10:09;;;;;;;;;;;;;;;7.87;30.58;100969.53;5052206;28;19931;-61
2022/03/20 10:12:35;;;;;;;;;;;;;;;7.86;30.00;100963.44;5050746;28;19924;-61
2022/03/20 10:15:01;;;;;;;;;;;;;;;7.90;30.43;100961.25;5051888;28;20275;-59
2022/03/20 10:17:28;;;;;;;;;;;;;;;7.93;30.48;100959.06;5050728;28;19929;-61
2022/03/20 10:19:55;;;;;;;;;;;;;;;8.02;30.81;100948.41;5051767;28;20027;-60
2022/03/20 10:22:22;;;;;;;;;;;;;;;8.03;30.34;100945.59;5050920;28;20389;-61
2022/03/20 10:24:48;;;;;;;;;;;;;;;8.00;30.48;100938.06;5051782;28;19975;-60
2022/03/20 10:27:14;;;;;;;;;;;;;;;8.04;30.25;100938.50;5051798;28;20356;-61
2022/03/20 10:29:52;;;;;;;;;;;;;;;8.07;30.26;100922.28;5067590;28;19929;-61
2022/03/20 10:32:18;;;;;;;;;;;;;;;8.06;30.01;100917.97;5067491;28;20296;-61
2022/03/20 10:34:52;;;;;;;;;;;;;;;8.09;29.43;100910.53;5033789;28;19925;-62
2022/03/20 10:37:19;;;;;;;;;;;;;;;8.08;29.82;100924.72;5051961;28;19928;-60
2022/03/20 10:39:45;;;;;;;;;;;;;;;8.08;29.77;100919.44;5051739;28;20079;-61
2022/03/20 10:42:11;;;;;;;;;;;;;;;8.11;30.23;100913.78;5051929;28;19998;-62
2022/03/20 10:44:38;;;;;;;;;;;;;;;8.06;30.21;100913.53;5052144;28;19928;-61
2022/03/20 10:47:13;;;;;;;;;;;;;;;8.14;30.48;100894.13;5067338;28;20352;-63
2022/03/20 10:49:42;;;;;;;;;;;;;;;8.19;30.76;100899.69;5052059;28;20124;-61
2022/03/20 10:52:09;;;;;;;;;;;;;;;8.26;31.00;100895.28;5051980;28;20058;-60
2022/03/20 10:54:45;;;;;;;;;;;;;;;8.32;31.01;100885.78;5052573;28;20094;-62
2022/03/20 10:57:11;;;;;;;;;;;;;;;8.39;31.47;100889.38;5055950;28;19950;-59
2022/03/20 10:59:37;;;;;;;;;;;;;;;8.41;31.08;100882.91;5055621;28;20428;-61
2022/03/20 11:02:05;;;;;;;;;;;;;;;8.45;32.10;100877.25;5054412;28;19960;-61
2022/03/20 11:04:31;;;;;;;;;;;;;;;8.43;31.78;100877.41;5056076;28;19937;-63
2022/03/20 11:06:59;;;;;;;;;;;;;;;8.50;31.66;100866.91;5071062;28;19969;-62
2022/03/20 11:09:25;;;;;;;;;;;;;;;8.52;31.76;100871.00;5055862;28;20417;-61
2022/03/20 11:11:51;;;;;;;;;;;;;;;8.52;32.54;100868.38;5055392;28;19976;-61
2022/03/20 11:14:19;;;;;;;;;;;;;;;8.54;32.13;100870.84;5055367;28;20374;-61
2022/03/20 11:16:49;;;;;;;;;;;;;;;8.52;32.36;100864.91;5055294;28;20024;-61
2022/03/20 11:19:15;;;;;;;;;;;;;;;8.48;32.24;100868.94;5055688;28;19928;-60
2022/03/20 11:21:44;;;;;;;;;;;;;;;8.50;32.58;100872.19;5055445;28;19970;-60
2022/03/20 11:24:09;;;;;;;;;;;;;;;8.54;32.89;100882.22;5053892;28;19978;-61
2022/03/20 11:26:35;;;;;;;;;;;;;;;8.53;32.92;100871.81;5070709;28;20019;-62
2022/03/20 11:29:01;;;;;;;;;;;;;;;8.49;33.35;100878.50;5055075;28;19935;-61
2022/03/20 11:31:27;;;;;;;;;;;;;;;8.58;33.63;100872.09;5070238;28;19931;-61
2022/03/20 11:33:54;;;;;;;;;;;;;;;8.68;33.31;100871.78;5055445;28;19929;-61
2022/03/20 11:36:20;;;;;;;;;;;;;;;8.59;33.08;100865.81;5054010;28;19925;-61
2022/03/20 11:39:19;;;;;;;;;;;;;;;8.56;33.44;100866.16;5054578;28;19936;-62
2022/03/20 11:41:45;;;;;;;;;;;;;;;8.57;33.63;100862.53;5054815;28;20443;-61
2022/03/20 11:44:20;;;;;;;;;;;;;;;8.61;33.38;100871.72;5055231;28;19929;-60
2022/03/20 11:46:46;;;;;;;;;;;;;;;8.62;33.90;100858.31;5054653;28;19925;-61
2022/03/20 11:49:16;;;;;;;;;;;;;;;8.60;33.88;100856.88;5055182;28;19929;-60
2022/03/20 11:51:55;;;;;;;;;;;;;;;8.61;34.07;100853.22;5054563;28;19925;-61
2022/03/20 11:54:22;;;;;;;;;;;;;;;8.60;34.04;100855.03;5055137;28;20337;-62
2022/03/20 11:56:48;;;;;;;;;;;;;;;8.57;34.14;100846.69;5070174;28;20283;-61
2022/03/20 11:59:32;;;;;;;;;;;;;;;8.54;34.41;100852.34;5054742;28;19935;-62
2022/03/20 12:02:01;;;;;;;;;;;;;;;8.55;34.52;100851.31;5054463;28;19924;-62
2022/03/20 12:04:27;;;;;;;;;;;;;;;8.55;34.67;100844.22;5069866;28;19929;-61
2022/03/20 12:06:58;;;;;;;;;;;;;;;8.58;35.08;100840.38;5068647;28;19982;-61
2022/03/20 12:09:42;;;;;;;;;;;;;;;8.60;35.35;100831.25;5053294;28;20015;-61
2022/03/20 12:12:09;;;;;;;;;;;;;;;8.62;34.95;100831.06;5054321;28;19925;-62
2022/03/20 12:15:04;;;;;;;;;;;;;;;8.62;35.34;100841.66;5069778;28;19933;-60
2022/03/20 12:17:50;;;;;;;;;;;;;;;8.56;35.14;100834.44;5052930;28;19924;-61
2022/03/20 12:20:36;;;;;;;;;;;;;;;8.50;35.64;100830.75;5053366;28;19956;-61
2022/03/20 12:23:20;;;;;;;;;;;;;;;8.53;36.24;100837.47;5054268;28;19929;-61
2022/03/20 12:25:45;;;;;;;;;;;;;;;8.46;35.90;100831.31;5054024;28;19925;-60
2022/03/20 12:28:31;;;;;;;;;;;;;;;8.45;35.81;100824.41;5054360;28;19935;-61
2022/03/20 12:30:57;;;;;;;;;;;;;;;8.39;36.52;100823.31;5053721;28;20405;-59
2022/03/20 12:33:26;;;;;;;;;;;;;;;8.41;37.48;100823.94;5052701;28;19964;-61
2022/03/20 12:35:53;;;;;;;;;;;;;;;8.46;36.02;100826.84;5054133;28;19932;-61
2022/03/20 12:38:40;;;;;;;;;;;;;;;8.46;36.34;100828.66;5053712;28;20006;-62
2022/03/20 12:41:13;;;;;;;;;;;;;;;8.39;36.36;100825.97;5053777;28;19925;-62
2022/03/20 12:43:40;;;;;;;;;;;;;;;8.37;36.39;100818.19;5054182;28;19960;-62
2022/03/20 12:46:06;;;;;;;;;;;;;;;8.38;36.98;100826.91;5053618;28;20439;-61
2022/03/20 12:48:34;;;;;;;;;;;;;;;8.41;37.24;100818.66;5053906;28;20018;-61
2022/03/20 12:51:10;;;;;;;;;;;;;;;8.35;37.73;100824.66;5053740;28;20025;-61
2022/03/20 12:53:40;;;;;;;;;;;;;;;8.28;38.16;100826.44;5053587;28;19929;-62
2022/03/20 12:56:10;;;;;;;;;;;;;;;8.27;38.34;100820.31;5053700;28;19931;-61
2022/03/20 12:58:35;;;;;;;;;;;;;;;8.28;38.68;100810.56;5053581;28;19942;-62
2022/03/20 13:01:06;;;;;;;;;;;;;;;8.32;38.63;100811.81;5053508;28;19924;-61
2022/03/20 13:03:33;;;;;;;;;;;;;;;8.32;39.06;100810.00;5053666;28;19959;-61
2022/03/20 13:05:58;;;;;;;;;;;;;;;8.29;38.73;100807.72;5053545;28;19924;-60
2022/03/20 13:08:30;;;;;;;;;;;;;;;8.31;38.72;100803.09;5053541;28;19998;-61
2022/03/20 13:10:57;;;;;;;;;;;;;;;8.31;38.27;100797.81;5053153;28;19931;-62